sensor_id;sensor_type;location;lat;lon;timestamp;P1;durP1;ratioP1;P2;durP2;ratioP2
76574;SDS011;65439;50.948;6.988;2023-09-08T00:01:27;9.40;;;6.10;;
76574;SDS011;65439;50.948;6.988;2023-09-08T00:03:53;7.75;;;6.38;;
76574;SDS011;65439;50.948;6.988;2023-09-08T00:06:18;9.52;;;6.75;;
76574;SDS011;65439;50.948;6.988;2023-09-08T00:08:43;7.20;;;6.22;;
76574;SDS011;65439;50.948;6.988;2023-09-08T00:11:08;9.00;;;6.27;;
76574;SDS011;65439;50.948;6.988;2023-09-08T00:13:34;7.18;;;5.78;;
76574;SDS011;65439;50.948;6.988;2023-09-08T00:15:59;10.20;;;7.05;;
76574;SDS011;65439;50.948;6.988;2023-09-08T00:18:24;14.65;;;7.00;;
76574;SDS011;65439;50.948;6.988;2023-09-08T00:20:49;9.53;;;5.60;;
76574;SDS011;65439;50.948;6.988;2023-09-08T00:23:15;8.63;;;6.60;;
76574;SDS011;65439;50.948;6.988;2023-09-08T00:25:40;8.43;;;5.97;;
76574;SDS011;65439;50.948;6.988;2023-09-08T00:28:05;12.33;;;6.50;;
76574;SDS011;65439;50.948;6.988;2023-09-08T00:30:31;8.10;;;6.43;;
76574;SDS011;65439;50.948;6.988;2023-09-08T00:32:56;7.17;;;6.47;;
76574;SDS011;65439;50.948;6.988;2023-09-08T00:35:21;7.32;;;6.40;;
76574;SDS011;65439;50.948;6.988;2023-09-08T00:37:46;12.68;;;6.63;;
76574;SDS011;65439;50.948;6.988;2023-09-08T00:40:12;7.65;;;6.25;;
76574;SDS011;65439;50.948;6.988;2023-09-08T00:42:37;10.70;;;7.00;;
76574;SDS011;65439;50.948;6.988;2023-09-08T00:45:02;9.03;;;6.37;;
76574;SDS011;65439;50.948;6.988;2023-09-08T00:47:28;8.18;;;6.35;;
76574;SDS011;65439;50.948;6.988;2023-09-08T00:49:53;8.40;;;5.75;;
76574;SDS011;65439;50.948;6.988;2023-09-08T00:52:18;7.43;;;5.83;;
76574;SDS011;65439;50.948;6.988;2023-09-08T00:54:43;7.47;;;5.90;;
76574;SDS011;65439;50.948;6.988;2023-09-08T00:57:09;8.83;;;5.70;;
76574;SDS011;65439;50.948;6.988;2023-09-08T00:59:34;9.50;;;6.13;;
76574;SDS011;65439;50.948;6.988;2023-09-08T01:02:00;8.80;;;6.28;;
76574;SDS011;65439;50.948;6.988;2023-09-08T01:04:25;9.68;;;6.38;;
76574;SDS011;65439;50.948;6.988;2023-09-08T01:06:50;7.80;;;6.30;;
76574;SDS011;65439;50.948;6.988;2023-09-08T01:09:15;7.63;;;5.93;;
76574;SDS011;65439;50.948;6.988;2023-09-08T01:11:41;6.93;;;5.55;;
76574;SDS011;65439;50.948;6.988;2023-09-08T01:14:07;7.23;;;6.10;;
76574;SDS011;65439;50.948;6.988;2023-09-08T01:16:32;7.13;;;5.50;;
76574;SDS011;65439;50.948;6.988;2023-09-08T01:18:57;9.13;;;6.50;;
76574;SDS011;65439;50.948;6.988;2023-09-08T01:21:35;8.35;;;6.57;;
76574;SDS011;65439;50.948;6.988;2023-09-08T01:26:58;7.97;;;6.03;;
76574;SDS011;65439;50.948;6.988;2023-09-08T01:29:23;8.90;;;5.78;;
76574;SDS011;65439;50.948;6.988;2023-09-08T01:31:49;7.90;;;5.82;;
76574;SDS011;65439;50.948;6.988;2023-09-08T01:34:15;7.53;;;5.88;;
76574;SDS011;65439;50.948;6.988;2023-09-08T01:36:40;8.80;;;6.28;;
76574;SDS011;65439;50.948;6.988;2023-09-08T01:39:05;8.98;;;6.15;;
76574;SDS011;65439;50.948;6.988;2023-09-08T01:41:31;9.13;;;6.43;;
76574;SDS011;65439;50.948;6.988;2023-09-08T01:43:59;9.32;;;5.80;;
76574;SDS011;65439;50.948;6.988;2023-09-08T01:46:24;11.85;;;6.32;;
76574;SDS011;65439;50.948;6.988;2023-09-08T01:48:50;8.40;;;5.93;;
76574;SDS011;65439;50.948;6.988;2023-09-08T01:51:15;13.87;;;6.13;;
76574;SDS011;65439;50.948;6.988;2023-09-08T01:53:40;8.30;;;6.37;;
76574;SDS011;65439;50.948;6.988;2023-09-08T01:56:05;7.17;;;6.10;;
76574;SDS011;65439;50.948;6.988;2023-09-08T01:58:31;6.93;;;6.03;;
76574;SDS011;65439;50.948;6.988;2023-09-08T02:00:57;8.32;;;5.22;;
76574;SDS011;65439;50.948;6.988;2023-09-08T02:03:26;8.85;;;6.53;;
76574;SDS011;65439;50.948;6.988;2023-09-08T02:05:51;7.47;;;6.53;;
76574;SDS011;65439;50.948;6.988;2023-09-08T02:08:16;7.63;;;6.00;;
76574;SDS011;65439;50.948;6.988;2023-09-08T02:10:42;8.40;;;6.35;;
76574;SDS011;65439;50.948;6.988;2023-09-08T02:13:07;7.15;;;5.75;;
76574;SDS011;65439;50.948;6.988;2023-09-08T02:15:34;8.97;;;5.97;;
76574;SDS011;65439;50.948;6.988;2023-09-08T02:17:59;8.65;;;6.22;;
76574;SDS011;65439;50.948;6.988;2023-09-08T02:20:24;9.90;;;6.00;;
76574;SDS011;65439;50.948;6.988;2023-09-08T02:22:53;7.95;;;6.22;;
76574;SDS011;65439;50.948;6.988;2023-09-08T02:25:18;7.22;;;5.85;;
76574;SDS011;65439;50.948;6.988;2023-09-08T02:27:43;7.07;;;5.93;;
76574;SDS011;65439;50.948;6.988;2023-09-08T02:30:09;14.73;;;6.73;;
76574;SDS011;65439;50.948;6.988;2023-09-08T02:32:34;7.75;;;6.53;;
76574;SDS011;65439;50.948;6.988;2023-09-08T02:34:59;7.83;;;5.93;;
76574;SDS011;65439;50.948;6.988;2023-09-08T02:37:24;7.22;;;6.03;;
76574;SDS011;65439;50.948;6.988;2023-09-08T02:39:49;8.83;;;6.90;;
76574;SDS011;65439;50.948;6.988;2023-09-08T02:42:15;10.47;;;5.83;;
76574;SDS011;65439;50.948;6.988;2023-09-08T02:44:40;8.90;;;6.53;;
76574;SDS011;65439;50.948;6.988;2023-09-08T02:47:05;8.00;;;6.50;;
76574;SDS011;65439;50.948;6.988;2023-09-08T02:49:31;8.00;;;6.60;;
76574;SDS011;65439;50.948;6.988;2023-09-08T02:51:56;8.53;;;5.93;;
76574;SDS011;65439;50.948;6.988;2023-09-08T02:54:21;9.17;;;5.97;;
76574;SDS011;65439;50.948;6.988;2023-09-08T02:56:47;7.60;;;6.80;;
76574;SDS011;65439;50.948;6.988;2023-09-08T02:59:12;8.57;;;6.82;;
76574;SDS011;65439;50.948;6.988;2023-09-08T03:01:37;8.97;;;6.50;;
76574;SDS011;65439;50.948;6.988;2023-09-08T03:04:02;7.90;;;6.18;;
76574;SDS011;65439;50.948;6.988;2023-09-08T03:06:27;8.50;;;7.15;;
76574;SDS011;65439;50.948;6.988;2023-09-08T03:08:53;8.07;;;6.70;;
76574;SDS011;65439;50.948;6.988;2023-09-08T03:11:18;11.40;;;6.35;;
76574;SDS011;65439;50.948;6.988;2023-09-08T03:13:43;8.97;;;6.50;;
76574;SDS011;65439;50.948;6.988;2023-09-08T03:16:08;8.73;;;6.90;;
76574;SDS011;65439;50.948;6.988;2023-09-08T03:18:34;9.25;;;6.82;;
76574;SDS011;65439;50.948;6.988;2023-09-08T03:21:01;9.20;;;6.50;;
76574;SDS011;65439;50.948;6.988;2023-09-08T03:23:28;9.75;;;6.30;;
76574;SDS011;65439;50.948;6.988;2023-09-08T03:25:53;13.93;;;6.67;;
76574;SDS011;65439;50.948;6.988;2023-09-08T03:28:18;10.17;;;7.77;;
76574;SDS011;65439;50.948;6.988;2023-09-08T03:30:43;9.48;;;6.32;;
76574;SDS011;65439;50.948;6.988;2023-09-08T03:33:09;9.25;;;6.90;;
76574;SDS011;65439;50.948;6.988;2023-09-08T03:35:34;8.87;;;6.83;;
76574;SDS011;65439;50.948;6.988;2023-09-08T03:37:59;11.77;;;6.75;;
76574;SDS011;65439;50.948;6.988;2023-09-08T03:40:24;8.87;;;6.47;;
76574;SDS011;65439;50.948;6.988;2023-09-08T03:42:49;9.70;;;6.93;;
76574;SDS011;65439;50.948;6.988;2023-09-08T03:45:14;11.07;;;7.47;;
76574;SDS011;65439;50.948;6.988;2023-09-08T03:47:40;9.98;;;6.55;;
76574;SDS011;65439;50.948;6.988;2023-09-08T03:50:05;7.70;;;6.47;;
76574;SDS011;65439;50.948;6.988;2023-09-08T03:52:31;9.98;;;6.75;;
76574;SDS011;65439;50.948;6.988;2023-09-08T03:54:56;7.70;;;6.27;;
76574;SDS011;65439;50.948;6.988;2023-09-08T03:57:21;8.93;;;6.30;;
76574;SDS011;65439;50.948;6.988;2023-09-08T03:59:46;14.47;;;6.63;;
76574;SDS011;65439;50.948;6.988;2023-09-08T04:02:12;10.35;;;6.47;;
76574;SDS011;65439;50.948;6.988;2023-09-08T04:04:37;10.23;;;7.18;;
76574;SDS011;65439;50.948;6.988;2023-09-08T04:07:02;8.47;;;6.50;;
76574;SDS011;65439;50.948;6.988;2023-09-08T04:09:27;9.47;;;6.20;;
76574;SDS011;65439;50.948;6.988;2023-09-08T04:11:56;8.07;;;6.47;;
76574;SDS011;65439;50.948;6.988;2023-09-08T04:14:22;7.63;;;5.87;;
76574;SDS011;65439;50.948;6.988;2023-09-08T04:16:51;10.90;;;6.97;;
76574;SDS011;65439;50.948;6.988;2023-09-08T04:19:17;8.67;;;6.60;;
76574;SDS011;65439;50.948;6.988;2023-09-08T04:21:42;7.63;;;6.47;;
76574;SDS011;65439;50.948;6.988;2023-09-08T04:24:07;10.45;;;6.72;;
76574;SDS011;65439;50.948;6.988;2023-09-08T04:26:35;10.15;;;6.63;;
76574;SDS011;65439;50.948;6.988;2023-09-08T04:29:00;14.57;;;6.60;;
76574;SDS011;65439;50.948;6.988;2023-09-08T04:31:25;10.60;;;6.33;;
76574;SDS011;65439;50.948;6.988;2023-09-08T04:33:50;8.43;;;6.25;;
76574;SDS011;65439;50.948;6.988;2023-09-08T04:36:15;12.75;;;7.13;;
76574;SDS011;65439;50.948;6.988;2023-09-08T04:38:41;7.90;;;6.23;;
76574;SDS011;65439;50.948;6.988;2023-09-08T04:41:06;9.20;;;6.25;;
76574;SDS011;65439;50.948;6.988;2023-09-08T04:43:31;8.57;;;6.23;;
76574;SDS011;65439;50.948;6.988;2023-09-08T04:45:57;9.73;;;7.07;;
76574;SDS011;65439;50.948;6.988;2023-09-08T04:48:22;9.20;;;6.57;;
76574;SDS011;65439;50.948;6.988;2023-09-08T04:50:47;13.97;;;7.63;;
76574;SDS011;65439;50.948;6.988;2023-09-08T04:53:13;9.47;;;6.67;;
76574;SDS011;65439;50.948;6.988;2023-09-08T04:55:38;9.90;;;6.47;;
76574;SDS011;65439;50.948;6.988;2023-09-08T04:58:03;10.73;;;6.63;;
76574;SDS011;65439;50.948;6.988;2023-09-08T05:00:28;9.90;;;6.73;;
76574;SDS011;65439;50.948;6.988;2023-09-08T05:02:53;7.20;;;6.23;;
76574;SDS011;65439;50.948;6.988;2023-09-08T05:05:19;12.67;;;6.97;;
76574;SDS011;65439;50.948;6.988;2023-09-08T05:07:44;9.73;;;7.67;;
76574;SDS011;65439;50.948;6.988;2023-09-08T05:10:10;8.02;;;6.53;;
76574;SDS011;65439;50.948;6.988;2023-09-08T05:12:35;10.20;;;6.37;;
76574;SDS011;65439;50.948;6.988;2023-09-08T05:15:01;8.87;;;6.37;;
76574;SDS011;65439;50.948;6.988;2023-09-08T05:17:31;8.10;;;6.05;;
76574;SDS011;65439;50.948;6.988;2023-09-08T05:19:57;10.20;;;6.88;;
76574;SDS011;65439;50.948;6.988;2023-09-08T05:22:22;8.87;;;5.73;;
76574;SDS011;65439;50.948;6.988;2023-09-08T05:24:47;14.57;;;7.30;;
76574;SDS011;65439;50.948;6.988;2023-09-08T05:27:12;10.20;;;6.53;;
76574;SDS011;65439;50.948;6.988;2023-09-08T05:29:37;14.57;;;7.00;;
76574;SDS011;65439;50.948;6.988;2023-09-08T05:32:03;12.07;;;6.13;;
76574;SDS011;65439;50.948;6.988;2023-09-08T05:34:28;12.83;;;7.03;;
76574;SDS011;65439;50.948;6.988;2023-09-08T05:36:53;8.20;;;6.20;;
76574;SDS011;65439;50.948;6.988;2023-09-08T05:39:18;8.83;;;6.50;;
76574;SDS011;65439;50.948;6.988;2023-09-08T05:41:44;7.85;;;6.43;;
76574;SDS011;65439;50.948;6.988;2023-09-08T05:44:09;10.60;;;6.78;;
76574;SDS011;65439;50.948;6.988;2023-09-08T05:46:34;8.03;;;5.77;;
76574;SDS011;65439;50.948;6.988;2023-09-08T05:49:00;12.63;;;6.57;;
76574;SDS011;65439;50.948;6.988;2023-09-08T05:51:25;8.23;;;5.93;;
76574;SDS011;65439;50.948;6.988;2023-09-08T05:53:50;17.27;;;6.45;;
76574;SDS011;65439;50.948;6.988;2023-09-08T05:56:18;12.70;;;6.07;;
76574;SDS011;65439;50.948;6.988;2023-09-08T05:58:43;7.13;;;6.20;;
76574;SDS011;65439;50.948;6.988;2023-09-08T06:01:08;11.57;;;5.87;;
76574;SDS011;65439;50.948;6.988;2023-09-08T06:03:33;13.73;;;6.60;;
76574;SDS011;65439;50.948;6.988;2023-09-08T06:05:58;10.93;;;6.50;;
76574;SDS011;65439;50.948;6.988;2023-09-08T06:08:24;8.93;;;5.20;;
76574;SDS011;65439;50.948;6.988;2023-09-08T06:10:49;9.27;;;6.03;;
76574;SDS011;65439;50.948;6.988;2023-09-08T06:13:14;10.07;;;6.33;;
76574;SDS011;65439;50.948;6.988;2023-09-08T06:15:39;7.33;;;6.40;;
76574;SDS011;65439;50.948;6.988;2023-09-08T06:18:05;14.30;;;5.57;;
76574;SDS011;65439;50.948;6.988;2023-09-08T06:20:30;8.13;;;5.78;;
76574;SDS011;65439;50.948;6.988;2023-09-08T06:22:55;9.17;;;6.03;;
76574;SDS011;65439;50.948;6.988;2023-09-08T06:25:20;9.23;;;6.13;;
76574;SDS011;65439;50.948;6.988;2023-09-08T06:27:46;12.05;;;7.13;;
76574;SDS011;65439;50.948;6.988;2023-09-08T06:30:11;8.50;;;5.73;;
76574;SDS011;65439;50.948;6.988;2023-09-08T06:32:38;12.68;;;7.18;;
76574;SDS011;65439;50.948;6.988;2023-09-08T06:35:03;9.70;;;5.93;;
76574;SDS011;65439;50.948;6.988;2023-09-08T06:37:29;8.35;;;5.97;;
76574;SDS011;65439;50.948;6.988;2023-09-08T06:39:59;8.50;;;6.15;;
76574;SDS011;65439;50.948;6.988;2023-09-08T06:42:24;10.03;;;5.63;;
76574;SDS011;65439;50.948;6.988;2023-09-08T06:44:49;8.17;;;5.60;;
76574;SDS011;65439;50.948;6.988;2023-09-08T06:47:14;7.90;;;5.17;;
76574;SDS011;65439;50.948;6.988;2023-09-08T06:49:40;10.05;;;6.90;;
76574;SDS011;65439;50.948;6.988;2023-09-08T06:52:06;7.35;;;5.85;;
76574;SDS011;65439;50.948;6.988;2023-09-08T06:54:31;11.05;;;6.07;;
76574;SDS011;65439;50.948;6.988;2023-09-08T06:56:57;11.38;;;7.30;;
76574;SDS011;65439;50.948;6.988;2023-09-08T06:59:22;8.37;;;6.10;;
76574;SDS011;65439;50.948;6.988;2023-09-08T07:01:47;8.40;;;5.10;;
76574;SDS011;65439;50.948;6.988;2023-09-08T07:04:12;7.37;;;5.53;;
76574;SDS011;65439;50.948;6.988;2023-09-08T07:06:38;6.05;;;5.38;;
76574;SDS011;65439;50.948;6.988;2023-09-08T07:09:06;12.00;;;7.03;;
76574;SDS011;65439;50.948;6.988;2023-09-08T07:11:31;11.57;;;5.07;;
76574;SDS011;65439;50.948;6.988;2023-09-08T07:13:57;9.00;;;5.53;;
76574;SDS011;65439;50.948;6.988;2023-09-08T07:16:22;6.60;;;4.67;;
76574;SDS011;65439;50.948;6.988;2023-09-08T07:18:47;6.93;;;5.60;;
76574;SDS011;65439;50.948;6.988;2023-09-08T07:21:12;8.17;;;5.57;;
76574;SDS011;65439;50.948;6.988;2023-09-08T07:23:37;11.85;;;5.00;;
76574;SDS011;65439;50.948;6.988;2023-09-08T07:26:03;7.25;;;5.25;;
76574;SDS011;65439;50.948;6.988;2023-09-08T07:28:28;10.50;;;5.77;;
76574;SDS011;65439;50.948;6.988;2023-09-08T07:30:53;6.90;;;5.70;;
76574;SDS011;65439;50.948;6.988;2023-09-08T07:33:18;9.73;;;5.80;;
76574;SDS011;65439;50.948;6.988;2023-09-08T07:35:44;8.05;;;5.07;;
76574;SDS011;65439;50.948;6.988;2023-09-08T07:38:10;6.20;;;4.63;;
76574;SDS011;65439;50.948;6.988;2023-09-08T07:40:35;7.27;;;5.63;;
76574;SDS011;65439;50.948;6.988;2023-09-08T07:43:00;7.65;;;5.45;;
76574;SDS011;65439;50.948;6.988;2023-09-08T07:45:25;15.87;;;5.67;;
76574;SDS011;65439;50.948;6.988;2023-09-08T07:47:51;7.53;;;5.50;;
76574;SDS011;65439;50.948;6.988;2023-09-08T07:50:17;7.67;;;5.43;;
76574;SDS011;65439;50.948;6.988;2023-09-08T07:52:43;10.73;;;5.85;;
76574;SDS011;65439;50.948;6.988;2023-09-08T07:55:08;10.53;;;6.40;;
76574;SDS011;65439;50.948;6.988;2023-09-08T07:57:34;5.93;;;4.73;;
76574;SDS011;65439;50.948;6.988;2023-09-08T07:59:59;8.10;;;5.50;;
76574;SDS011;65439;50.948;6.988;2023-09-08T08:02:24;6.37;;;4.77;;
76574;SDS011;65439;50.948;6.988;2023-09-08T08:04:49;7.33;;;4.43;;
76574;SDS011;65439;50.948;6.988;2023-09-08T08:07:14;6.55;;;5.30;;
76574;SDS011;65439;50.948;6.988;2023-09-08T08:09:40;10.27;;;4.73;;
76574;SDS011;65439;50.948;6.988;2023-09-08T08:12:05;11.00;;;5.53;;
76574;SDS011;65439;50.948;6.988;2023-09-08T08:14:30;7.80;;;5.20;;
76574;SDS011;65439;50.948;6.988;2023-09-08T08:16:55;6.65;;;5.20;;
76574;SDS011;65439;50.948;6.988;2023-09-08T08:19:20;8.40;;;5.50;;
76574;SDS011;65439;50.948;6.988;2023-09-08T08:21:45;6.17;;;4.77;;
76574;SDS011;65439;50.948;6.988;2023-09-08T08:24:11;19.10;;;5.18;;
76574;SDS011;65439;50.948;6.988;2023-09-08T08:29:02;6.25;;;4.43;;
76574;SDS011;65439;50.948;6.988;2023-09-08T08:31:27;7.30;;;5.10;;
76574;SDS011;65439;50.948;6.988;2023-09-08T08:33:53;7.93;;;4.55;;
76574;SDS011;65439;50.948;6.988;2023-09-08T08:36:18;6.83;;;4.67;;
76574;SDS011;65439;50.948;6.988;2023-09-08T08:38:43;6.18;;;4.90;;
76574;SDS011;65439;50.948;6.988;2023-09-08T08:41:09;6.22;;;4.63;;
76574;SDS011;65439;50.948;6.988;2023-09-08T08:43:35;7.18;;;4.60;;
76574;SDS011;65439;50.948;6.988;2023-09-08T08:46:01;7.13;;;4.50;;
76574;SDS011;65439;50.948;6.988;2023-09-08T08:48:27;8.15;;;4.63;;
76574;SDS011;65439;50.948;6.988;2023-09-08T08:50:54;7.20;;;4.63;;
76574;SDS011;65439;50.948;6.988;2023-09-08T08:53:21;6.13;;;5.07;;
76574;SDS011;65439;50.948;6.988;2023-09-08T08:55:46;8.27;;;4.63;;
76574;SDS011;65439;50.948;6.988;2023-09-08T08:58:11;21.52;;;5.93;;
76574;SDS011;65439;50.948;6.988;2023-09-08T09:00:39;8.02;;;4.65;;
76574;SDS011;65439;50.948;6.988;2023-09-08T09:03:05;8.70;;;5.22;;
76574;SDS011;65439;50.948;6.988;2023-09-08T09:05:30;9.05;;;4.45;;
76574;SDS011;65439;50.948;6.988;2023-09-08T09:07:57;6.47;;;4.82;;
76574;SDS011;65439;50.948;6.988;2023-09-08T09:10:22;8.38;;;5.13;;
76574;SDS011;65439;50.948;6.988;2023-09-08T09:12:48;5.78;;;4.40;;
76574;SDS011;65439;50.948;6.988;2023-09-08T09:17:38;10.27;;;4.90;;
76574;SDS011;65439;50.948;6.988;2023-09-08T09:20:17;9.38;;;4.50;;
76574;SDS011;65439;50.948;6.988;2023-09-08T09:22:43;7.95;;;4.55;;
76574;SDS011;65439;50.948;6.988;2023-09-08T09:25:09;6.95;;;4.70;;
76574;SDS011;65439;50.948;6.988;2023-09-08T09:27:35;7.28;;;5.30;;
76574;SDS011;65439;50.948;6.988;2023-09-08T09:30:03;5.47;;;4.85;;
76574;SDS011;65439;50.948;6.988;2023-09-08T09:32:28;9.98;;;5.05;;
76574;SDS011;65439;50.948;6.988;2023-09-08T09:34:54;6.30;;;4.57;;
76574;SDS011;65439;50.948;6.988;2023-09-08T09:37:20;5.37;;;4.40;;
76574;SDS011;65439;50.948;6.988;2023-09-08T09:42:10;6.32;;;4.47;;
76574;SDS011;65439;50.948;6.988;2023-09-08T09:47:00;9.85;;;4.90;;
76574;SDS011;65439;50.948;6.988;2023-09-08T09:51:56;9.35;;;4.82;;
76574;SDS011;65439;50.948;6.988;2023-09-08T09:54:23;7.03;;;4.90;;
76574;SDS011;65439;50.948;6.988;2023-09-08T09:56:48;6.95;;;4.97;;
76574;SDS011;65439;50.948;6.988;2023-09-08T10:01:39;6.15;;;5.13;;
76574;SDS011;65439;50.948;6.988;2023-09-08T10:06:33;7.60;;;4.63;;
76574;SDS011;65439;50.948;6.988;2023-09-08T10:09:02;7.93;;;4.80;;
76574;SDS011;65439;50.948;6.988;2023-09-08T10:11:34;8.73;;;5.47;;
76574;SDS011;65439;50.948;6.988;2023-09-08T10:13:59;7.70;;;5.20;;
76574;SDS011;65439;50.948;6.988;2023-09-08T10:18:50;7.38;;;4.50;;
76574;SDS011;65439;50.948;6.988;2023-09-08T10:21:16;8.65;;;4.88;;
76574;SDS011;65439;50.948;6.988;2023-09-08T10:26:11;7.32;;;4.78;;
76574;SDS011;65439;50.948;6.988;2023-09-08T10:28:37;6.07;;;5.10;;
76574;SDS011;65439;50.948;6.988;2023-09-08T10:33:28;7.40;;;4.90;;
76574;SDS011;65439;50.948;6.988;2023-09-08T10:38:21;7.53;;;4.72;;
76574;SDS011;65439;50.948;6.988;2023-09-08T10:40:47;9.45;;;4.90;;
76574;SDS011;65439;50.948;6.988;2023-09-08T10:45:39;6.93;;;4.70;;
76574;SDS011;65439;50.948;6.988;2023-09-08T10:48:04;9.57;;;4.82;;
76574;SDS011;65439;50.948;6.988;2023-09-08T10:50:31;10.73;;;5.05;;
76574;SDS011;65439;50.948;6.988;2023-09-08T10:53:07;8.70;;;4.57;;
76574;SDS011;65439;50.948;6.988;2023-09-08T10:55:52;7.10;;;5.68;;
76574;SDS011;65439;50.948;6.988;2023-09-08T10:58:18;6.05;;;4.88;;
76574;SDS011;65439;50.948;6.988;2023-09-08T11:00:45;7.05;;;5.07;;
76574;SDS011;65439;50.948;6.988;2023-09-08T11:03:11;5.32;;;4.60;;
76574;SDS011;65439;50.948;6.988;2023-09-08T11:05:36;6.30;;;5.30;;
76574;SDS011;65439;50.948;6.988;2023-09-08T11:08:01;7.63;;;5.22;;
76574;SDS011;65439;50.948;6.988;2023-09-08T11:10:26;10.03;;;5.23;;
76574;SDS011;65439;50.948;6.988;2023-09-08T11:12:52;7.57;;;4.75;;
76574;SDS011;65439;50.948;6.988;2023-09-08T11:15:19;5.38;;;4.55;;
76574;SDS011;65439;50.948;6.988;2023-09-08T11:20:09;9.03;;;5.17;;
76574;SDS011;65439;50.948;6.988;2023-09-08T11:22:35;6.53;;;5.07;;
76574;SDS011;65439;50.948;6.988;2023-09-08T11:25:01;7.72;;;4.85;;
76574;SDS011;65439;50.948;6.988;2023-09-08T11:27:29;6.40;;;5.03;;
76574;SDS011;65439;50.948;6.988;2023-09-08T11:29:55;7.50;;;4.63;;
76574;SDS011;65439;50.948;6.988;2023-09-08T11:32:20;6.75;;;4.78;;
76574;SDS011;65439;50.948;6.988;2023-09-08T11:34:45;8.33;;;4.87;;
76574;SDS011;65439;50.948;6.988;2023-09-08T11:37:11;8.60;;;4.67;;
76574;SDS011;65439;50.948;6.988;2023-09-08T11:39:38;7.43;;;5.38;;
76574;SDS011;65439;50.948;6.988;2023-09-08T11:42:03;5.75;;;4.75;;
76574;SDS011;65439;50.948;6.988;2023-09-08T11:44:29;11.95;;;5.28;;
76574;SDS011;65439;50.948;6.988;2023-09-08T11:46:54;6.27;;;4.73;;
76574;SDS011;65439;50.948;6.988;2023-09-08T11:49:19;6.80;;;5.17;;
76574;SDS011;65439;50.948;6.988;2023-09-08T11:51:45;6.57;;;4.97;;
76574;SDS011;65439;50.948;6.988;2023-09-08T11:54:10;8.03;;;5.07;;
76574;SDS011;65439;50.948;6.988;2023-09-08T11:56:36;6.82;;;4.88;;
76574;SDS011;65439;50.948;6.988;2023-09-08T11:59:01;7.13;;;5.47;;
76574;SDS011;65439;50.948;6.988;2023-09-08T12:01:27;6.15;;;5.20;;
76574;SDS011;65439;50.948;6.988;2023-09-08T12:03:53;5.93;;;4.73;;
76574;SDS011;65439;50.948;6.988;2023-09-08T12:06:19;6.72;;;5.43;;
76574;SDS011;65439;50.948;6.988;2023-09-08T12:08:44;7.90;;;4.77;;
76574;SDS011;65439;50.948;6.988;2023-09-08T12:11:10;6.10;;;5.50;;
76574;SDS011;65439;50.948;6.988;2023-09-08T12:13:35;8.33;;;5.30;;
76574;SDS011;65439;50.948;6.988;2023-09-08T12:16:00;5.77;;;4.90;;
76574;SDS011;65439;50.948;6.988;2023-09-08T12:18:38;16.60;;;5.60;;
76574;SDS011;65439;50.948;6.988;2023-09-08T12:21:04;5.95;;;4.40;;
76574;SDS011;65439;50.948;6.988;2023-09-08T12:25:56;6.50;;;5.80;;
76574;SDS011;65439;50.948;6.988;2023-09-08T12:28:21;7.22;;;5.47;;
76574;SDS011;65439;50.948;6.988;2023-09-08T12:30:48;8.93;;;6.18;;
76574;SDS011;65439;50.948;6.988;2023-09-08T12:33:14;5.88;;;4.50;;
76574;SDS011;65439;50.948;6.988;2023-09-08T12:35:45;6.65;;;5.00;;
76574;SDS011;65439;50.948;6.988;2023-09-08T12:38:10;7.40;;;5.07;;
76574;SDS011;65439;50.948;6.988;2023-09-08T12:40:36;6.63;;;5.13;;
76574;SDS011;65439;50.948;6.988;2023-09-08T12:43:02;12.23;;;6.05;;
76574;SDS011;65439;50.948;6.988;2023-09-08T12:45:27;6.95;;;5.15;;
76574;SDS011;65439;50.948;6.988;2023-09-08T12:47:53;10.77;;;4.63;;
76574;SDS011;65439;50.948;6.988;2023-09-08T12:50:19;7.00;;;4.57;;
76574;SDS011;65439;50.948;6.988;2023-09-08T12:52:45;8.75;;;4.57;;
76574;SDS011;65439;50.948;6.988;2023-09-08T12:55:10;6.57;;;5.30;;
76574;SDS011;65439;50.948;6.988;2023-09-08T12:57:36;6.73;;;4.80;;
76574;SDS011;65439;50.948;6.988;2023-09-08T13:00:01;6.85;;;5.20;;
76574;SDS011;65439;50.948;6.988;2023-09-08T13:02:26;6.10;;;5.15;;
76574;SDS011;65439;50.948;6.988;2023-09-08T13:04:52;7.73;;;5.07;;
76574;SDS011;65439;50.948;6.988;2023-09-08T13:07:17;7.37;;;4.57;;
76574;SDS011;65439;50.948;6.988;2023-09-08T13:09:43;6.40;;;4.03;;
76574;SDS011;65439;50.948;6.988;2023-09-08T13:12:09;6.82;;;4.10;;
76574;SDS011;65439;50.948;6.988;2023-09-08T13:14:35;6.43;;;4.55;;
76574;SDS011;65439;50.948;6.988;2023-09-08T13:17:03;6.47;;;4.73;;
76574;SDS011;65439;50.948;6.988;2023-09-08T13:19:28;5.97;;;4.70;;
76574;SDS011;65439;50.948;6.988;2023-09-08T13:21:54;11.27;;;4.63;;
76574;SDS011;65439;50.948;6.988;2023-09-08T13:24:19;5.00;;;4.47;;
76574;SDS011;65439;50.948;6.988;2023-09-08T13:26:46;7.18;;;5.82;;
76574;SDS011;65439;50.948;6.988;2023-09-08T13:29:12;8.10;;;4.32;;
76574;SDS011;65439;50.948;6.988;2023-09-08T13:31:37;6.13;;;5.53;;
76574;SDS011;65439;50.948;6.988;2023-09-08T13:34:02;6.07;;;4.78;;
76574;SDS011;65439;50.948;6.988;2023-09-08T13:36:27;9.20;;;6.20;;
76574;SDS011;65439;50.948;6.988;2023-09-08T13:38:52;5.60;;;4.25;;
76574;SDS011;65439;50.948;6.988;2023-09-08T13:41:17;8.13;;;5.00;;
76574;SDS011;65439;50.948;6.988;2023-09-08T13:43:42;5.80;;;4.93;;
76574;SDS011;65439;50.948;6.988;2023-09-08T13:46:08;5.83;;;5.23;;
76574;SDS011;65439;50.948;6.988;2023-09-08T13:48:33;5.82;;;4.55;;
76574;SDS011;65439;50.948;6.988;2023-09-08T13:51:04;5.97;;;4.35;;
76574;SDS011;65439;50.948;6.988;2023-09-08T13:53:29;6.28;;;4.78;;
76574;SDS011;65439;50.948;6.988;2023-09-08T13:56:01;6.13;;;4.20;;
76574;SDS011;65439;50.948;6.988;2023-09-08T13:58:27;5.05;;;4.55;;
76574;SDS011;65439;50.948;6.988;2023-09-08T14:00:52;6.90;;;4.43;;
76574;SDS011;65439;50.948;6.988;2023-09-08T14:03:17;5.30;;;4.80;;
76574;SDS011;65439;50.948;6.988;2023-09-08T14:05:43;5.50;;;4.68;;
76574;SDS011;65439;50.948;6.988;2023-09-08T14:08:08;5.37;;;4.43;;
76574;SDS011;65439;50.948;6.988;2023-09-08T14:10:33;6.55;;;4.47;;
76574;SDS011;65439;50.948;6.988;2023-09-08T14:12:59;6.33;;;4.63;;
76574;SDS011;65439;50.948;6.988;2023-09-08T14:15:24;5.10;;;4.38;;
76574;SDS011;65439;50.948;6.988;2023-09-08T14:17:49;6.43;;;5.15;;
76574;SDS011;65439;50.948;6.988;2023-09-08T14:20:15;5.75;;;4.57;;
76574;SDS011;65439;50.948;6.988;2023-09-08T14:22:40;5.60;;;4.33;;
76574;SDS011;65439;50.948;6.988;2023-09-08T14:25:05;7.23;;;4.30;;
76574;SDS011;65439;50.948;6.988;2023-09-08T14:27:30;6.25;;;4.78;;
76574;SDS011;65439;50.948;6.988;2023-09-08T14:29:55;5.93;;;4.93;;
76574;SDS011;65439;50.948;6.988;2023-09-08T14:32:21;5.73;;;4.70;;
76574;SDS011;65439;50.948;6.988;2023-09-08T14:34:46;9.50;;;5.33;;
76574;SDS011;65439;50.948;6.988;2023-09-08T14:37:11;6.47;;;4.93;;
76574;SDS011;65439;50.948;6.988;2023-09-08T14:39:36;6.23;;;5.50;;
76574;SDS011;65439;50.948;6.988;2023-09-08T14:42:01;5.55;;;5.05;;
76574;SDS011;65439;50.948;6.988;2023-09-08T14:44:27;8.23;;;4.90;;
76574;SDS011;65439;50.948;6.988;2023-09-08T14:46:52;5.00;;;4.43;;
76574;SDS011;65439;50.948;6.988;2023-09-08T14:49:17;5.80;;;4.60;;
76574;SDS011;65439;50.948;6.988;2023-09-08T14:51:42;5.13;;;4.63;;
76574;SDS011;65439;50.948;6.988;2023-09-08T14:54:07;4.90;;;4.40;;
76574;SDS011;65439;50.948;6.988;2023-09-08T14:56:33;6.70;;;4.57;;
76574;SDS011;65439;50.948;6.988;2023-09-08T14:58:58;6.77;;;4.77;;
76574;SDS011;65439;50.948;6.988;2023-09-08T15:01:24;6.07;;;5.00;;
76574;SDS011;65439;50.948;6.988;2023-09-08T15:03:49;4.63;;;4.23;;
76574;SDS011;65439;50.948;6.988;2023-09-08T15:06:15;7.80;;;4.57;;
76574;SDS011;65439;50.948;6.988;2023-09-08T15:08:40;6.43;;;4.50;;
76574;SDS011;65439;50.948;6.988;2023-09-08T15:11:07;5.28;;;4.78;;
76574;SDS011;65439;50.948;6.988;2023-09-08T15:13:33;6.47;;;5.00;;